createdAt,value
2018-02-27T00:02:06.563Z,-10.30
2018-02-27T00:04:35.195Z,-10.30
2018-02-27T00:07:03.520Z,-10.40
2018-02-27T00:09:32.752Z,-10.50
2018-02-27T00:12:01.074Z,-10.40
2018-02-27T00:14:29.424Z,-10.40
2018-02-27T00:16:57.903Z,-10.30
2018-02-27T00:19:26.313Z,-10.10
2018-02-27T00:21:54.644Z,-10.00
2018-02-27T00:24:23.488Z,-10.20
2018-02-27T00:26:51.840Z,-10.20
2018-02-27T00:29:20.169Z,-10.30
2018-02-27T00:31:50.035Z,-10.20
2018-02-27T00:34:18.372Z,-10.30
2018-02-27T00:36:46.709Z,-10.50
2018-02-27T00:39:15.943Z,-10.50
2018-02-27T00:41:44.581Z,-10.50
2018-02-27T00:44:12.903Z,-10.40
2018-02-27T00:46:41.348Z,-10.30
2018-02-27T00:49:10.356Z,-10.30
2018-02-27T00:51:39.419Z,-10.80
2018-02-27T00:54:07.785Z,-10.80
2018-02-27T00:56:36.119Z,-10.90
2018-02-27T00:59:04.439Z,-11.10
2018-02-27T01:01:33.411Z,-11.30
2018-02-27T01:04:01.732Z,-10.80
2018-02-27T01:06:30.061Z,-10.80
2018-02-27T01:08:58.447Z,-10.80
2018-02-27T01:11:27.276Z,-10.90
2018-02-27T01:13:56.361Z,-11.20
2018-02-27T01:16:24.739Z,-11.20
2018-02-27T01:18:53.136Z,-11.20
2018-02-27T01:21:22.224Z,-11.20
2018-02-27T01:23:51.376Z,-11.10
2018-02-27T01:26:19.716Z,-11.10
2018-02-27T01:28:48.052Z,-11.10
2018-02-27T01:31:16.888Z,-11.40
2018-02-27T01:33:45.212Z,-11.20
2018-02-27T01:36:13.529Z,-11.10
2018-02-27T01:38:43.033Z,-11.10
2018-02-27T01:41:11.347Z,-11.10
2018-02-27T01:43:39.692Z,-11.10
2018-02-27T01:46:08.040Z,-11.40
2018-02-27T01:48:36.376Z,-11.50
2018-02-27T01:51:15.484Z,-11.60
2018-02-27T01:53:43.863Z,-11.40
2018-02-27T01:56:12.624Z,-11.40
2018-02-27T01:58:40.963Z,-11.40
2018-02-27T02:01:09.362Z,-11.40
2018-02-27T02:03:37.684Z,-11.50
2018-02-27T02:06:06.016Z,-11.70
2018-02-27T02:08:35.006Z,-11.60
2018-02-27T02:11:03.340Z,-11.30
2018-02-27T02:13:31.671Z,-11.00
2018-02-27T02:16:01.562Z,-11.10
2018-02-27T02:18:29.884Z,-11.10
2018-02-27T02:20:58.673Z,-11.40
2018-02-27T02:23:27.416Z,-11.30
2018-02-27T02:25:55.740Z,-11.20
2018-02-27T02:28:24.300Z,-11.30
2018-02-27T02:30:52.652Z,-11.60
2018-02-27T02:33:21.063Z,-11.50
2018-02-27T02:35:49.533Z,-11.20
2018-02-27T02:38:17.916Z,-11.10
2018-02-27T02:40:46.249Z,-11.30
2018-02-27T02:43:14.705Z,-11.40
2018-02-27T02:45:43.081Z,-11.40
2018-02-27T02:48:11.571Z,-11.60
2018-02-27T02:50:39.904Z,-11.70
2018-02-27T02:53:08.303Z,-11.50
2018-02-27T02:55:36.652Z,-11.30
2018-02-27T02:58:05.060Z,-11.50
2018-02-27T03:00:33.420Z,-11.60
2018-02-27T03:03:01.829Z,-11.60
2018-02-27T03:05:30.226Z,-11.60
2018-02-27T03:07:58.592Z,-11.80
2018-02-27T03:10:27.725Z,-11.70
2018-02-27T03:12:56.264Z,-11.80
2018-02-27T03:15:24.902Z,-11.60
2018-02-27T03:17:53.460Z,-11.60
2018-02-27T03:20:21.908Z,-11.70
2018-02-27T03:22:51.172Z,-11.90
2018-02-27T03:25:19.502Z,-12.00
2018-02-27T03:27:48.404Z,-12.20
2018-02-27T03:30:16.737Z,-11.90
2018-02-27T03:32:45.059Z,-11.90
2018-02-27T03:35:13.801Z,-11.90
2018-02-27T03:37:42.135Z,-11.70
2018-02-27T03:40:10.884Z,-11.50
2018-02-27T03:42:39.266Z,-11.40
2018-02-27T03:45:07.611Z,-11.40
2018-02-27T03:47:35.936Z,-11.30
2018-02-27T03:50:05.065Z,-11.50
2018-02-27T03:52:34.164Z,-11.50
2018-02-27T03:55:02.552Z,-11.50
2018-02-27T03:57:30.872Z,-11.80
2018-02-27T03:59:59.452Z,-11.70
2018-02-27T04:02:27.812Z,-11.60
2018-02-27T04:04:56.143Z,-11.70
2018-02-27T04:07:24.556Z,-11.70
2018-02-27T04:09:53.485Z,-11.70
2018-02-27T04:12:22.584Z,-12.00
2018-02-27T04:14:50.981Z,-12.10
2018-02-27T04:17:19.860Z,-12.10
2018-02-27T04:19:48.185Z,-12.10
2018-02-27T04:22:16.581Z,-11.80
2018-02-27T04:24:44.907Z,-11.60
2018-02-27T04:27:13.242Z,-11.60
2018-02-27T04:29:41.787Z,-11.70
2018-02-27T04:32:10.108Z,-11.70
2018-02-27T04:34:38.432Z,-11.50
2018-02-27T04:37:07.057Z,-11.50
2018-02-27T04:39:35.487Z,-11.80
2018-02-27T04:42:04.090Z,-11.60
2018-02-27T04:44:32.564Z,-11.90
2018-02-27T04:47:00.926Z,-11.70
2018-02-27T04:49:29.264Z,-11.70
2018-02-27T04:51:57.644Z,-11.70
2018-02-27T04:54:26.672Z,-11.90
2018-02-27T04:56:54.993Z,-11.90
2018-02-27T04:59:23.351Z,-12.00
2018-02-27T05:01:51.710Z,-11.90
2018-02-27T05:04:20.038Z,-11.90
2018-02-27T05:06:49.585Z,-12.00
2018-02-27T05:09:17.904Z,-11.90
2018-02-27T05:11:46.277Z,-12.00
2018-02-27T05:14:14.932Z,-11.90
2018-02-27T05:16:43.262Z,-12.00
2018-02-27T05:19:12.124Z,-12.10
2018-02-27T05:21:41.068Z,-12.10
2018-02-27T05:24:09.424Z,-12.20
2018-02-27T05:26:37.751Z,-12.20
2018-02-27T05:29:06.076Z,-12.40
2018-02-27T05:31:34.451Z,-12.30
2018-02-27T05:34:02.793Z,-12.10
2018-02-27T05:36:31.123Z,-12.30
2018-02-27T05:38:59.248Z,-12.10
2018-02-27T05:41:28.160Z,-12.10
2018-02-27T05:43:56.547Z,-12.20
2018-02-27T05:46:24.869Z,-12.10
2018-02-27T05:48:53.984Z,-12.10
2018-02-27T05:51:22.308Z,-12.10
2018-02-27T05:53:51.200Z,-12.10
2018-02-27T05:56:19.541Z,-11.90
2018-02-27T05:58:47.866Z,-11.70
2018-02-27T06:01:16.299Z,-11.70
2018-02-27T06:03:45.104Z,-11.60
2018-02-27T06:06:13.437Z,-11.60
2018-02-27T06:08:41.828Z,-11.60
2018-02-27T06:11:11.002Z,-11.40
2018-02-27T06:13:39.316Z,-11.40
2018-02-27T06:16:07.761Z,-11.40
2018-02-27T06:18:36.121Z,-11.40
2018-02-27T06:21:04.541Z,-11.40
2018-02-27T06:23:32.992Z,-11.50
2018-02-27T06:26:01.335Z,-11.30
2018-02-27T06:28:29.652Z,-11.10
2018-02-27T06:30:58.603Z,-11.00
2018-02-27T06:33:26.924Z,-10.90
2018-02-27T06:35:55.398Z,-11.00
2018-02-27T06:38:24.486Z,-10.70
2018-02-27T06:40:52.812Z,-10.50
2018-02-27T06:43:21.154Z,-10.50
2018-02-27T06:45:49.922Z,-10.30
2018-02-27T06:48:18.261Z,-10.20
2018-02-27T06:50:46.622Z,-10.40
2018-02-27T06:53:15.740Z,-10.10
2018-02-27T06:55:43.875Z,-10.10
2018-02-27T06:58:12.640Z,-10.10
2018-02-27T07:00:40.961Z,-10.00
2018-02-27T07:03:10.059Z,-9.70
2018-02-27T07:05:38.448Z,-9.70
2018-02-27T07:08:07.589Z,-9.70
2018-02-27T07:10:36.800Z,-9.70
2018-02-27T07:13:05.116Z,-9.60
2018-02-27T07:15:34.037Z,-9.50
2018-02-27T07:18:02.488Z,-9.40
2018-02-27T07:20:30.816Z,-9.40
2018-02-27T07:22:59.184Z,-9.20
2018-02-27T07:25:27.509Z,-9.30
2018-02-27T07:27:55.872Z,-9.30
2018-02-27T07:30:24.564Z,-9.00
2018-02-27T07:32:52.740Z,-8.70
2018-02-27T07:35:21.755Z,-8.60
2018-02-27T07:37:51.216Z,-8.60
2018-02-27T07:40:19.528Z,-8.30
2018-02-27T07:42:48.648Z,-8.30
2018-02-27T07:45:16.972Z,-8.30
2018-02-27T07:47:47.258Z,-8.20
2018-02-27T07:50:15.633Z,-8.20
2018-02-27T07:52:44.315Z,-8.10
2018-02-27T07:55:13.217Z,-7.70
2018-02-27T07:57:42.047Z,-7.80
2018-02-27T08:00:10.996Z,-7.40
2018-02-27T08:02:39.312Z,-7.40
2018-02-27T08:05:08.566Z,-7.70
2018-02-27T08:07:36.859Z,-7.60
2018-02-27T08:10:05.235Z,-7.60
2018-02-27T08:12:33.557Z,-7.50
2018-02-27T08:15:02.094Z,-7.50
2018-02-27T08:17:30.452Z,-7.40
2018-02-27T08:19:58.769Z,-7.80
2018-02-27T08:22:27.117Z,-7.50
2018-02-27T08:24:55.704Z,-7.60
2018-02-27T08:27:24.024Z,-7.40
2018-02-27T08:29:52.929Z,-7.40
2018-02-27T08:32:21.296Z,-7.40
2018-02-27T08:34:49.617Z,-7.30
2018-02-27T08:37:17.937Z,-7.20
2018-02-27T08:39:46.377Z,-6.90
2018-02-27T08:42:14.699Z,-6.80
2018-02-27T08:44:43.017Z,-6.90
2018-02-27T08:47:11.410Z,-6.60
2018-02-27T08:49:40.091Z,-6.40
2018-02-27T08:52:08.424Z,-5.80
2018-02-27T08:54:36.739Z,-6.20
2018-02-27T08:57:05.097Z,-5.70
2018-02-27T08:59:34.188Z,-5.90
2018-02-27T09:02:02.616Z,-6.50
2018-02-27T09:04:31.264Z,-6.50
2018-02-27T09:07:00.097Z,-6.70
2018-02-27T09:09:29.259Z,-6.80
2018-02-27T09:11:58.059Z,-6.60
2018-02-27T09:14:26.800Z,-6.70
2018-02-27T09:16:55.124Z,-7.20
2018-02-27T09:19:23.452Z,-7.60
2018-02-27T09:21:51.901Z,-7.60
2018-02-27T09:24:20.619Z,-7.20
2018-02-27T09:26:48.952Z,-7.00
2018-02-27T09:29:17.747Z,-7.30
2018-02-27T09:31:46.235Z,-6.80
2018-02-27T09:34:14.664Z,-6.10
2018-02-27T09:36:43.040Z,-6.30
2018-02-27T09:39:11.363Z,-5.60
2018-02-27T09:41:39.684Z,-5.70
2018-02-27T09:44:08.045Z,-5.80
2018-02-27T09:46:36.407Z,-4.90
2018-02-27T09:49:04.731Z,-4.00
2018-02-27T09:51:33.057Z,-4.30
2018-02-27T09:54:01.406Z,-4.70
2018-02-27T09:56:30.497Z,-4.50
2018-02-27T09:58:59.597Z,-4.60
2018-02-27T10:01:29.896Z,-4.40
2018-02-27T10:03:58.503Z,-4.40
2018-02-27T10:06:27.133Z,-5.20
2018-02-27T10:08:55.699Z,-5.80
2018-02-27T10:11:24.068Z,-6.20
2018-02-27T10:13:52.385Z,-6.60
2018-02-27T10:16:20.700Z,-6.50
2018-02-27T10:18:49.569Z,-6.20
2018-02-27T10:21:17.891Z,-6.00
2018-02-27T10:23:46.204Z,-5.80
2018-02-27T10:26:14.571Z,-6.30
2018-02-27T10:28:42.943Z,-6.70
2018-02-27T10:31:11.257Z,-6.60
2018-02-27T10:33:39.663Z,-6.10
2018-02-27T10:36:07.976Z,-5.90
2018-02-27T10:38:36.605Z,-5.60
2018-02-27T10:41:04.961Z,-5.10
2018-02-27T10:43:33.416Z,-4.90
2018-02-27T10:46:01.731Z,-5.20
2018-02-27T10:48:30.052Z,-5.60
2018-02-27T10:50:58.451Z,-6.10
2018-02-27T10:53:26.763Z,-5.80
2018-02-27T10:55:55.300Z,-5.60
2018-02-27T10:58:23.653Z,-5.80
2018-02-27T11:01:01.880Z,-6.20
2018-02-27T11:03:30.294Z,-6.30
2018-02-27T11:05:58.612Z,-6.00
2018-02-27T11:08:27.692Z,-5.40
2018-02-27T11:10:55.812Z,-5.40
2018-02-27T11:13:24.128Z,-5.10
2018-02-27T11:15:53.402Z,-5.00
2018-02-27T11:18:22.389Z,-4.80
2018-02-27T11:20:50.781Z,-5.00
2018-02-27T11:23:19.136Z,-5.40
2018-02-27T11:25:48.608Z,-5.00
2018-02-27T11:28:16.931Z,-5.00
2018-02-27T11:30:45.291Z,-4.90
2018-02-27T11:33:13.634Z,-5.20
2018-02-27T11:35:41.964Z,-5.30
2018-02-27T11:38:10.304Z,-5.30
2018-02-27T11:40:40.704Z,-5.90
2018-02-27T11:43:09.050Z,-5.90
2018-02-27T11:45:38.320Z,-6.40
2018-02-27T11:48:06.668Z,-5.80
2018-02-27T11:50:35.013Z,-5.70
2018-02-27T11:53:03.328Z,-5.80
2018-02-27T11:55:31.701Z,-5.70
2018-02-27T11:58:00.056Z,-5.40
2018-02-27T12:00:29.439Z,-5.30
2018-02-27T12:02:57.816Z,-5.50
2018-02-27T12:05:26.132Z,-5.70
2018-02-27T12:07:54.604Z,-5.40
2018-02-27T12:10:23.160Z,-5.10
2018-02-27T12:12:51.504Z,-5.50
2018-02-27T12:15:19.809Z,-5.10
2018-02-27T12:17:48.676Z,-4.60
2018-02-27T12:20:18.183Z,-4.50
2018-02-27T12:22:46.509Z,-4.60
2018-02-27T12:25:15.084Z,-4.90
2018-02-27T12:27:43.490Z,-4.50
2018-02-27T12:30:11.894Z,-4.90
2018-02-27T12:32:40.243Z,-5.10
2018-02-27T12:35:08.556Z,-5.10
2018-02-27T12:37:36.868Z,-5.30
2018-02-27T12:40:05.252Z,-5.50
2018-02-27T12:42:33.572Z,-4.80
2018-02-27T12:45:01.889Z,-5.00
2018-02-27T12:47:30.744Z,-4.90
2018-02-27T12:50:00.663Z,-4.70
2018-02-27T12:52:29.146Z,-4.80
2018-02-27T12:54:57.520Z,-4.90
2018-02-27T12:57:26.596Z,-4.90
2018-02-27T12:59:55.500Z,-4.90
2018-02-27T13:02:24.956Z,-4.90
2018-02-27T13:04:53.289Z,-4.90
2018-02-27T13:07:21.608Z,-4.30
2018-02-27T13:09:50.002Z,-4.30
2018-02-27T13:12:18.324Z,-4.20
2018-02-27T13:14:47.400Z,-4.20
2018-02-27T13:17:16.616Z,-4.20
2018-02-27T13:19:44.935Z,-4.30
2018-02-27T13:22:13.252Z,-4.40
2018-02-27T13:24:41.583Z,-4.00
2018-02-27T13:27:09.900Z,-3.90
2018-02-27T13:29:38.371Z,-4.00
2018-02-27T13:32:06.697Z,-4.60
2018-02-27T13:34:35.020Z,-4.30
2018-02-27T13:37:03.478Z,-4.60
2018-02-27T13:39:31.796Z,-4.40
2018-02-27T13:42:00.116Z,-4.30
2018-02-27T13:44:28.464Z,-4.30
2018-02-27T13:46:56.781Z,-4.40
2018-02-27T13:49:25.266Z,-4.60
2018-02-27T13:51:53.500Z,-4.50
2018-02-27T13:54:21.821Z,-4.60
2018-02-27T13:56:50.176Z,-4.80
2018-02-27T13:59:19.247Z,-5.20
2018-02-27T14:01:47.551Z,-5.20
2018-02-27T14:04:16.523Z,-4.70
2018-02-27T14:06:44.852Z,-4.50
2018-02-27T14:09:13.175Z,-4.20
2018-02-27T14:11:41.528Z,-4.00
2018-02-27T14:14:09.898Z,-4.70
2018-02-27T14:16:38.220Z,-5.00
2018-02-27T14:19:07.335Z,-4.80
2018-02-27T14:21:35.660Z,-4.80
2018-02-27T14:24:03.992Z,-4.40
2018-02-27T14:26:32.890Z,-4.80
2018-02-27T14:29:01.177Z,-5.00
2018-02-27T14:31:29.500Z,-4.80
2018-02-27T14:33:57.869Z,-5.00
2018-02-27T14:36:26.210Z,-4.80
2018-02-27T14:38:54.540Z,-4.60
2018-02-27T14:41:22.892Z,-4.90
2018-02-27T14:43:51.232Z,-4.80
2018-02-27T14:46:19.732Z,-5.10
2018-02-27T14:48:48.050Z,-4.80
2018-02-27T14:51:16.385Z,-5.20
2018-02-27T14:53:45.124Z,-5.40
2018-02-27T14:56:13.501Z,-5.40
2018-02-27T14:58:41.820Z,-5.70
2018-02-27T15:01:10.148Z,-5.60
2018-02-27T15:03:38.520Z,-5.60
2018-02-27T15:06:06.843Z,-5.50
2018-02-27T15:08:35.163Z,-5.70
2018-02-27T15:11:03.527Z,-5.70
2018-02-27T15:13:31.844Z,-5.70
2018-02-27T15:16:00.161Z,-6.10
2018-02-27T15:18:28.541Z,-6.00
2018-02-27T15:20:56.872Z,-5.70
2018-02-27T15:23:25.189Z,-5.60
2018-02-27T15:25:53.556Z,-5.60
2018-02-27T15:28:21.923Z,-5.80
2018-02-27T15:30:51.034Z,-5.70
2018-02-27T15:33:19.394Z,-5.70
2018-02-27T15:35:47.724Z,-5.70
2018-02-27T15:38:16.092Z,-5.90
2018-02-27T15:40:44.404Z,-6.00
2018-02-27T15:43:12.720Z,-5.90
2018-02-27T15:45:42.343Z,-6.00
2018-02-27T15:48:10.801Z,-6.10
2018-02-27T15:50:39.900Z,-6.20
2018-02-27T15:53:09.043Z,-6.10
2018-02-27T15:55:38.036Z,-6.10
2018-02-27T15:58:06.353Z,-6.20
2018-02-27T16:00:35.345Z,-6.20
2018-02-27T16:03:03.665Z,-6.20
2018-02-27T16:05:34.095Z,-6.20
2018-02-27T16:08:02.440Z,-6.20
2018-02-27T16:10:30.860Z,-6.20
2018-02-27T16:12:59.884Z,-6.20
2018-02-27T16:15:28.196Z,-6.20
2018-02-27T16:17:56.552Z,-6.30
2018-02-27T16:20:24.917Z,-6.50
2018-02-27T16:22:53.231Z,-6.50
2018-02-27T16:25:21.632Z,-6.60
2018-02-27T16:27:49.984Z,-6.70
2018-02-27T16:30:19.070Z,-6.80
2018-02-27T16:32:48.195Z,-6.90
2018-02-27T16:35:16.541Z,-6.90
2018-02-27T16:37:45.366Z,-6.90
2018-02-27T16:40:13.739Z,-6.90
2018-02-27T16:42:42.563Z,-7.00
2018-02-27T16:45:10.932Z,-7.00
2018-02-27T16:47:39.299Z,-7.10
2018-02-27T16:50:08.468Z,-7.20
2018-02-27T16:52:36.853Z,-7.10
2018-02-27T16:55:05.416Z,-7.20
2018-02-27T16:57:33.645Z,-7.20
2018-02-27T17:00:01.993Z,-7.30
2018-02-27T17:02:30.348Z,-7.30
2018-02-27T17:04:58.689Z,-7.30
2018-02-27T17:07:27.111Z,-7.40
2018-02-27T17:09:56.196Z,-7.60
2018-02-27T17:12:24.558Z,-7.60
2018-02-27T17:14:53.405Z,-7.60
2018-02-27T17:17:21.725Z,-7.60
2018-02-27T17:19:50.868Z,-7.70
2018-02-27T17:22:19.228Z,-7.60
2018-02-27T17:24:47.546Z,-7.70
2018-02-27T17:27:15.864Z,-7.70
2018-02-27T17:29:44.237Z,-7.80
2018-02-27T17:32:12.557Z,-7.80
2018-02-27T17:34:40.884Z,-7.80
2018-02-27T17:37:09.269Z,-7.80
2018-02-27T17:39:37.615Z,-7.80
2018-02-27T17:42:06.300Z,-7.90
2018-02-27T17:44:34.745Z,-7.90
2018-02-27T17:47:03.829Z,-8.10
2018-02-27T17:49:32.196Z,-8.10
2018-02-27T17:52:00.511Z,-8.10
2018-02-27T17:54:28.844Z,-8.00
2018-02-27T17:56:58.614Z,-8.10
2018-02-27T17:59:26.944Z,-8.20
2018-02-27T18:01:55.384Z,-8.20
2018-02-27T18:04:23.776Z,-8.20
2018-02-27T18:06:52.202Z,-8.10
2018-02-27T18:09:22.150Z,-8.10
2018-02-27T18:11:52.110Z,-8.20
2018-02-27T18:14:21.900Z,-8.40
2018-02-27T18:16:50.218Z,-8.40
2018-02-27T18:19:18.393Z,-8.40
2018-02-27T18:21:46.760Z,-8.30
2018-02-27T18:24:15.091Z,-8.40
2018-02-27T18:26:43.408Z,-8.50
2018-02-27T18:29:13.688Z,-8.40
2018-02-27T18:31:42.260Z,-8.60
2018-02-27T18:34:11.300Z,-8.70
2018-02-27T18:36:39.649Z,-8.80
2018-02-27T18:39:08.408Z,-8.80
2018-02-27T18:41:36.731Z,-9.00
2018-02-27T18:44:05.125Z,-9.00
2018-02-27T18:46:33.445Z,-9.20
2018-02-27T18:49:01.782Z,-9.20
2018-02-27T18:51:31.315Z,-9.00
2018-02-27T18:54:00.448Z,-8.70
2018-02-27T18:56:28.800Z,-8.70
2018-02-27T18:58:57.144Z,-8.80
2018-02-27T19:01:25.535Z,-9.00
2018-02-27T19:03:53.877Z,-9.30
2018-02-27T19:06:22.711Z,-9.60
2018-02-27T19:08:51.068Z,-9.50
2018-02-27T19:11:19.388Z,-9.40
2018-02-27T19:13:47.721Z,-9.10
2018-02-27T19:16:16.075Z,-9.00
2018-02-27T19:18:44.387Z,-9.10
2018-02-27T19:21:13.540Z,-9.10
2018-02-27T19:23:42.184Z,-9.10
2018-02-27T19:26:11.356Z,-9.00
2018-02-27T19:28:39.720Z,-9.10
2018-02-27T19:31:08.069Z,-9.10
2018-02-27T19:33:36.417Z,-9.10
2018-02-27T19:36:04.863Z,-9.10
2018-02-27T19:38:33.249Z,-9.10
2018-02-27T19:41:02.497Z,-9.10
2018-02-27T19:43:30.819Z,-9.10
2018-02-27T19:45:59.224Z,-9.40
2018-02-27T19:48:27.634Z,-9.70
2018-02-27T19:50:56.344Z,-9.70
2018-02-27T19:53:24.763Z,-9.90
2018-02-27T19:55:53.075Z,-10.00
2018-02-27T19:58:21.444Z,-10.00
2018-02-27T20:00:49.772Z,-9.80
2018-02-27T20:03:18.275Z,-9.60
2018-02-27T20:05:47.266Z,-9.60
2018-02-27T20:08:16.758Z,-9.70
2018-02-27T20:10:45.425Z,-9.90
2018-02-27T20:13:14.137Z,-10.30
2018-02-27T20:15:42.491Z,-10.50
2018-02-27T20:18:11.732Z,-10.60
2018-02-27T20:20:40.557Z,-10.60
2018-02-27T20:23:14.456Z,-10.70
2018-02-27T20:25:43.656Z,-10.70
2018-02-27T20:28:17.734Z,-10.90
2018-02-27T20:30:46.451Z,-10.70
2018-02-27T20:33:14.800Z,-10.40
2018-02-27T20:35:44.066Z,-10.60
2018-02-27T20:38:12.157Z,-10.70
2018-02-27T20:40:41.744Z,-11.00
2018-02-27T20:43:09.959Z,-11.20
2018-02-27T20:45:38.328Z,-11.40
2018-02-27T20:48:07.012Z,-11.50
2018-02-27T20:50:37.517Z,-11.40
2018-02-27T20:53:05.864Z,-11.40
2018-02-27T20:55:34.233Z,-11.30
2018-02-27T20:58:03.325Z,-11.30
2018-02-27T21:00:32.963Z,-11.60
2018-02-27T21:03:01.292Z,-11.60
2018-02-27T21:05:29.625Z,-11.50
2018-02-27T21:07:58.053Z,-11.70
2018-02-27T21:10:26.974Z,-11.80
2018-02-27T21:12:55.324Z,-11.80
2018-02-27T21:15:23.661Z,-11.70
2018-02-27T21:17:51.986Z,-11.80
2018-02-27T21:20:21.081Z,-12.00
2018-02-27T21:22:50.577Z,-12.00
2018-02-27T21:25:19.785Z,-12.10
2018-02-27T21:27:48.113Z,-12.10
2018-02-27T21:30:16.509Z,-12.10
2018-02-27T21:32:44.836Z,-12.20
2018-02-27T21:35:13.164Z,-12.10
2018-02-27T21:37:41.724Z,-12.10
2018-02-27T21:40:10.121Z,-12.20
2018-02-27T21:42:38.696Z,-12.00
2018-02-27T21:45:07.029Z,-12.00
2018-02-27T21:47:35.433Z,-11.90
2018-02-27T21:50:03.789Z,-11.90
2018-02-27T21:52:32.137Z,-12.00
2018-02-27T21:55:00.371Z,-12.30
2018-02-27T21:57:28.779Z,-12.50
2018-02-27T21:59:57.596Z,-12.50
2018-02-27T22:02:26.738Z,-12.10
2018-02-27T22:04:55.476Z,-12.20
2018-02-27T22:07:23.920Z,-12.00
2018-02-27T22:09:53.233Z,-11.90
2018-02-27T22:12:21.944Z,-11.80
2018-02-27T22:14:51.041Z,-12.00
2018-02-27T22:17:19.373Z,-12.20
2018-02-27T22:19:47.816Z,-12.40
2018-02-27T22:22:15.984Z,-12.50
2018-02-27T22:24:45.083Z,-12.70
2018-02-27T22:27:14.112Z,-12.70
2018-02-27T22:29:42.589Z,-12.70
2018-02-27T22:32:10.918Z,-12.80
2018-02-27T22:34:40.371Z,-12.80
2018-02-27T22:37:08.980Z,-12.80
2018-02-27T22:39:37.777Z,-12.70
2018-02-27T22:42:06.343Z,-12.50
2018-02-27T22:44:35.435Z,-12.50
2018-02-27T22:47:03.560Z,-12.50
2018-02-27T22:49:32.218Z,-12.10
2018-02-27T22:52:00.928Z,-12.00
2018-02-27T22:54:29.362Z,-12.20
2018-02-27T22:56:57.692Z,-12.40
2018-02-27T22:59:26.577Z,-12.60
2018-02-27T23:01:54.910Z,-12.80
2018-02-27T23:04:23.242Z,-12.90
2018-02-27T23:06:52.043Z,-12.90
2018-02-27T23:09:21.338Z,-12.80
2018-02-27T23:11:49.680Z,-12.80
2018-02-27T23:14:18.248Z,-12.80
2018-02-27T23:16:47.188Z,-12.90
2018-02-27T23:19:15.729Z,-12.90
2018-02-27T23:21:44.065Z,-12.90
2018-02-27T23:24:17.856Z,-13.00
2018-02-27T23:26:48.305Z,-12.70
2018-02-27T23:29:18.760Z,-12.70
2018-02-27T23:31:48.163Z,-12.80
2018-02-27T23:34:18.151Z,-12.80
2018-02-27T23:36:46.477Z,-13.00
2018-02-27T23:39:14.796Z,-13.00
2018-02-27T23:41:42.920Z,-13.00
2018-02-27T23:44:11.243Z,-13.20
2018-02-27T23:46:39.604Z,-13.30
2018-02-27T23:49:07.923Z,-13.30
2018-02-27T23:51:37.076Z,-13.00
2018-02-27T23:54:06.169Z,-12.70
2018-02-27T23:56:36.456Z,-12.80
2018-02-27T23:59:04.863Z,-12.80
